sensor_id;sensor_type;location;lat;lon;timestamp;pressure;altitude;pressure_sealevel;temperature;humidity
39177;BME280;24904;52.208;21.192;2023-07-30T00:03:47;99598.64;;;18.68;87.44
39177;BME280;24904;52.208;21.192;2023-07-30T00:08:50;99602.58;;;18.67;87.49
39177;BME280;24904;52.208;21.192;2023-07-30T00:13:53;99602.58;;;18.67;87.84
39177;BME280;24904;52.208;21.192;2023-07-30T00:18:56;99601.80;;;18.69;88.17
39177;BME280;24904;52.208;21.192;2023-07-30T00:23:59;99602.41;;;18.68;88.36
39177;BME280;24904;52.208;21.192;2023-07-30T00:29:02;99608.48;;;18.64;88.71
39177;BME280;24904;52.208;21.192;2023-07-30T00:34:06;99611.26;;;18.61;89.05
39177;BME280;24904;52.208;21.192;2023-07-30T00:39:09;99622.35;;;18.62;89.34
39177;BME280;24904;52.208;21.192;2023-07-30T00:44:13;99626.25;;;18.60;89.27
39177;BME280;24904;52.208;21.192;2023-07-30T00:49:17;99623.08;;;18.60;89.48
39177;BME280;24904;52.208;21.192;2023-07-30T00:54:21;99625.58;;;18.58;89.54
39177;BME280;24904;52.208;21.192;2023-07-30T00:59:24;99633.64;;;18.57;89.80
39177;BME280;24904;52.208;21.192;2023-07-30T01:04:28;99633.68;;;18.58;89.78
39177;BME280;24904;52.208;21.192;2023-07-30T01:09:31;99639.27;;;18.57;89.83
39177;BME280;24904;52.208;21.192;2023-07-30T01:14:36;99639.30;;;18.56;89.78
39177;BME280;24904;52.208;21.192;2023-07-30T01:19:40;99634.19;;;18.55;89.78
39177;BME280;24904;52.208;21.192;2023-07-30T01:24:44;99635.30;;;18.55;89.81
39177;BME280;24904;52.208;21.192;2023-07-30T01:29:51;99648.03;;;18.52;89.70
39177;BME280;24904;52.208;21.192;2023-07-30T01:34:58;99644.19;;;18.46;89.74
39177;BME280;24904;52.208;21.192;2023-07-30T01:40:05;99646.10;;;18.46;89.80
39177;BME280;24904;52.208;21.192;2023-07-30T01:45:08;99650.54;;;18.43;89.96
39177;BME280;24904;52.208;21.192;2023-07-30T01:50:12;99648.77;;;18.41;90.01
39177;BME280;24904;52.208;21.192;2023-07-30T01:55:15;99652.07;;;18.40;90.09
39177;BME280;24904;52.208;21.192;2023-07-30T02:00:18;99653.28;;;18.37;90.10
39177;BME280;24904;52.208;21.192;2023-07-30T02:05:21;99659.34;;;18.34;90.11
39177;BME280;24904;52.208;21.192;2023-07-30T02:10:25;99659.45;;;18.30;90.30
39177;BME280;24904;52.208;21.192;2023-07-30T02:15:28;99658.44;;;18.27;90.32
39177;BME280;24904;52.208;21.192;2023-07-30T02:20:32;99659.23;;;18.25;90.47
39177;BME280;24904;52.208;21.192;2023-07-30T02:25:35;99658.73;;;18.25;90.56
39177;BME280;24904;52.208;21.192;2023-07-30T02:30:38;99662.98;;;18.24;90.57
39177;BME280;24904;52.208;21.192;2023-07-30T02:35:41;99670.23;;;18.21;90.54
39177;BME280;24904;52.208;21.192;2023-07-30T02:40:45;99676.55;;;18.17;90.77
39177;BME280;24904;52.208;21.192;2023-07-30T02:45:48;99681.02;;;18.16;91.00
39177;BME280;24904;52.208;21.192;2023-07-30T02:50:51;99682.30;;;18.16;91.09
39177;BME280;24904;52.208;21.192;2023-07-30T02:55:54;99681.69;;;18.15;91.28
39177;BME280;24904;52.208;21.192;2023-07-30T03:01:06;99678.08;;;18.16;91.39
39177;BME280;24904;52.208;21.192;2023-07-30T03:06:09;99677.45;;;18.13;91.51
39177;BME280;24904;52.208;21.192;2023-07-30T03:11:12;99674.02;;;18.14;91.66
39177;BME280;24904;52.208;21.192;2023-07-30T03:16:15;99675.94;;;18.14;91.92
39177;BME280;24904;52.208;21.192;2023-07-30T03:21:19;99678.25;;;18.13;92.14
39177;BME280;24904;52.208;21.192;2023-07-30T03:26:23;99678.80;;;18.13;92.43
39177;BME280;24904;52.208;21.192;2023-07-30T03:31:26;99687.94;;;18.13;92.63
39177;BME280;24904;52.208;21.192;2023-07-30T03:36:30;99692.91;;;18.11;92.76
39177;BME280;24904;52.208;21.192;2023-07-30T03:41:33;99699.16;;;18.12;92.91
39177;BME280;24904;52.208;21.192;2023-07-30T03:46:37;99693.98;;;18.13;93.02
39177;BME280;24904;52.208;21.192;2023-07-30T03:51:40;99692.73;;;18.12;93.21
39177;BME280;24904;52.208;21.192;2023-07-30T03:56:43;99692.48;;;18.15;93.42
39177;BME280;24904;52.208;21.192;2023-07-30T04:01:46;99704.05;;;18.15;93.51
39177;BME280;24904;52.208;21.192;2023-07-30T04:06:49;99705.34;;;18.18;93.56
39177;BME280;24904;52.208;21.192;2023-07-30T04:11:52;99704.23;;;18.18;93.75
39177;BME280;24904;52.208;21.192;2023-07-30T04:16:55;99708.85;;;18.20;93.90
39177;BME280;24904;52.208;21.192;2023-07-30T04:21:58;99715.73;;;18.21;93.92
39177;BME280;24904;52.208;21.192;2023-07-30T04:27:02;99720.70;;;18.22;93.98
39177;BME280;24904;52.208;21.192;2023-07-30T04:32:07;99726.67;;;18.24;94.16
39177;BME280;24904;52.208;21.192;2023-07-30T04:37:10;99735.32;;;18.26;94.43
39177;BME280;24904;52.208;21.192;2023-07-30T04:42:13;99741.80;;;18.27;94.27
39177;BME280;24904;52.208;21.192;2023-07-30T04:47:18;99752.84;;;18.25;94.09
39177;BME280;24904;52.208;21.192;2023-07-30T04:52:22;99757.52;;;18.23;93.94
39177;BME280;24904;52.208;21.192;2023-07-30T04:57:25;99767.94;;;18.22;93.83
39177;BME280;24904;52.208;21.192;2023-07-30T05:02:29;99772.31;;;18.19;93.69
39177;BME280;24904;52.208;21.192;2023-07-30T05:07:32;99779.42;;;18.14;93.28
39177;BME280;24904;52.208;21.192;2023-07-30T05:12:35;99781.16;;;18.12;93.20
39177;BME280;24904;52.208;21.192;2023-07-30T05:25:45;99799.23;;;18.13;93.34
39177;BME280;24904;52.208;21.192;2023-07-30T05:30:50;99804.35;;;18.15;93.26
39177;BME280;24904;52.208;21.192;2023-07-30T05:35:55;99807.74;;;18.15;93.23
39177;BME280;24904;52.208;21.192;2023-07-30T05:41:00;99816.30;;;18.16;93.43
39177;BME280;24904;52.208;21.192;2023-07-30T05:46:05;99822.50;;;18.15;93.50
39177;BME280;24904;52.208;21.192;2023-07-30T05:51:10;99834.59;;;18.12;93.09
39177;BME280;24904;52.208;21.192;2023-07-30T05:56:15;99841.11;;;18.09;92.98
39177;BME280;24904;52.208;21.192;2023-07-30T06:01:22;99841.96;;;18.06;92.25
39177;BME280;24904;52.208;21.192;2023-07-30T06:06:27;99841.83;;;18.03;91.69
39177;BME280;24904;52.208;21.192;2023-07-30T06:11:32;99841.92;;;18.03;92.04
39177;BME280;24904;52.208;21.192;2023-07-30T06:16:37;99852.19;;;18.04;91.97
39177;BME280;24904;52.208;21.192;2023-07-30T06:21:42;99847.77;;;18.12;92.17
39177;BME280;24904;52.208;21.192;2023-07-30T06:26:47;99850.14;;;18.23;92.60
39177;BME280;24904;52.208;21.192;2023-07-30T06:31:52;99846.23;;;18.38;92.78
39177;BME280;24904;52.208;21.192;2023-07-30T06:36:57;99845.95;;;18.50;92.51
39177;BME280;24904;52.208;21.192;2023-07-30T06:42:02;99847.56;;;18.54;91.69
39177;BME280;24904;52.208;21.192;2023-07-30T06:47:07;99847.40;;;18.63;91.43
39177;BME280;24904;52.208;21.192;2023-07-30T06:52:49;99854.68;;;18.72;90.32
39177;BME280;24904;52.208;21.192;2023-07-30T06:57:53;99854.50;;;18.67;90.12
39177;BME280;24904;52.208;21.192;2023-07-30T07:02:56;99854.96;;;18.79;89.63
39177;BME280;24904;52.208;21.192;2023-07-30T07:07:59;99850.58;;;18.94;89.35
39177;BME280;24904;52.208;21.192;2023-07-30T07:13:02;99857.70;;;19.06;89.65
39177;BME280;24904;52.208;21.192;2023-07-30T07:18:04;99858.16;;;19.14;89.68
39177;BME280;24904;52.208;21.192;2023-07-30T07:23:08;99854.64;;;19.14;88.37
39177;BME280;24904;52.208;21.192;2023-07-30T07:28:11;99858.89;;;19.18;88.06
39177;BME280;24904;52.208;21.192;2023-07-30T07:33:14;99863.06;;;19.39;88.32
39177;BME280;24904;52.208;21.192;2023-07-30T07:38:17;99868.61;;;19.51;86.98
39177;BME280;24904;52.208;21.192;2023-07-30T07:43:20;99872.98;;;19.54;85.90
39177;BME280;24904;52.208;21.192;2023-07-30T07:48:23;99864.62;;;19.60;85.54
39177;BME280;24904;52.208;21.192;2023-07-30T07:53:26;99864.59;;;19.70;85.20
39177;BME280;24904;52.208;21.192;2023-07-30T07:58:29;99861.08;;;19.77;84.44
39177;BME280;24904;52.208;21.192;2023-07-30T08:03:32;99864.73;;;19.87;83.85
39177;BME280;24904;52.208;21.192;2023-07-30T08:08:35;99867.55;;;20.03;83.11
39177;BME280;24904;52.208;21.192;2023-07-30T08:13:38;99878.29;;;20.10;82.39
39177;BME280;24904;52.208;21.192;2023-07-30T08:18:41;99878.78;;;20.22;81.54
39177;BME280;24904;52.208;21.192;2023-07-30T08:23:46;99881.22;;;20.40;81.74
39177;BME280;24904;52.208;21.192;2023-07-30T08:28:49;99882.81;;;20.51;80.90
39177;BME280;24904;52.208;21.192;2023-07-30T08:33:52;99886.08;;;20.64;80.11
39177;BME280;24904;52.208;21.192;2023-07-30T08:38:55;99879.84;;;20.85;80.16
39177;BME280;24904;52.208;21.192;2023-07-30T08:43:59;99881.59;;;21.12;79.32
39177;BME280;24904;52.208;21.192;2023-07-30T08:49:02;99891.16;;;21.26;78.44
39177;BME280;24904;52.208;21.192;2023-07-30T08:54:06;99893.64;;;21.26;77.44
39177;BME280;24904;52.208;21.192;2023-07-30T08:59:11;99897.17;;;21.23;76.17
39177;BME280;24904;52.208;21.192;2023-07-30T09:04:15;99892.83;;;21.42;76.99
39177;BME280;24904;52.208;21.192;2023-07-30T09:09:20;99899.05;;;21.67;76.05
39177;BME280;24904;52.208;21.192;2023-07-30T09:14:23;99893.83;;;21.83;74.59
39177;BME280;24904;52.208;21.192;2023-07-30T09:19:26;99895.97;;;21.95;73.78
39177;BME280;24904;52.208;21.192;2023-07-30T09:24:30;99901.34;;;22.18;74.13
39177;BME280;24904;52.208;21.192;2023-07-30T09:29:33;99902.70;;;22.31;71.73
39177;BME280;24904;52.208;21.192;2023-07-30T09:34:36;99905.43;;;22.36;71.83
39177;BME280;24904;52.208;21.192;2023-07-30T09:39:48;99910.75;;;22.33;71.46
39177;BME280;24904;52.208;21.192;2023-07-30T09:44:51;99908.64;;;22.40;70.93
39177;BME280;24904;52.208;21.192;2023-07-30T09:49:55;99917.80;;;22.46;70.46
39177;BME280;24904;52.208;21.192;2023-07-30T09:54:58;99920.45;;;22.58;70.76
39177;BME280;24904;52.208;21.192;2023-07-30T10:00:02;99920.02;;;22.73;70.00
39177;BME280;24904;52.208;21.192;2023-07-30T10:05:10;99921.25;;;22.73;70.22
39177;BME280;24904;52.208;21.192;2023-07-30T10:10:14;99920.72;;;22.74;70.10
39177;BME280;24904;52.208;21.192;2023-07-30T10:15:19;99914.65;;;22.85;69.15
39177;BME280;24904;52.208;21.192;2023-07-30T10:20:24;99910.88;;;22.99;69.06
39177;BME280;24904;52.208;21.192;2023-07-30T10:25:30;99904.50;;;23.11;68.49
39177;BME280;24904;52.208;21.192;2023-07-30T10:30:56;99903.54;;;23.11;68.73
39177;BME280;24904;52.208;21.192;2023-07-30T10:35:59;99896.16;;;23.21;67.15
39177;BME280;24904;52.208;21.192;2023-07-30T10:41:04;99892.54;;;23.36;67.26
39177;BME280;24904;52.208;21.192;2023-07-30T10:46:08;99893.73;;;23.49;67.07
39177;BME280;24904;52.208;21.192;2023-07-30T10:51:12;99895.91;;;23.46;67.08
39177;BME280;24904;52.208;21.192;2023-07-30T10:56:17;99891.42;;;23.38;66.39
39177;BME280;24904;52.208;21.192;2023-07-30T11:01:24;99886.25;;;23.42;66.51
39177;BME280;24904;52.208;21.192;2023-07-30T11:06:28;99888.49;;;23.42;66.15
39177;BME280;24904;52.208;21.192;2023-07-30T11:11:31;99887.98;;;23.37;66.60
39177;BME280;24904;52.208;21.192;2023-07-30T11:16:35;99882.79;;;23.35;66.60
39177;BME280;24904;52.208;21.192;2023-07-30T11:21:45;99876.35;;;23.38;67.07
39177;BME280;24904;52.208;21.192;2023-07-30T11:26:58;99873.45;;;23.43;66.56
39177;BME280;24904;52.208;21.192;2023-07-30T11:32:01;99861.95;;;23.47;64.09
39177;BME280;24904;52.208;21.192;2023-07-30T11:37:06;99864.42;;;23.56;63.30
39177;BME280;24904;52.208;21.192;2023-07-30T11:42:09;99858.84;;;23.62;63.13
39177;BME280;24904;52.208;21.192;2023-07-30T11:47:21;99857.05;;;23.72;63.71
39177;BME280;24904;52.208;21.192;2023-07-30T11:52:25;99849.70;;;23.81;65.54
39177;BME280;24904;52.208;21.192;2023-07-30T11:57:34;99854.20;;;23.90;64.69
39177;BME280;24904;52.208;21.192;2023-07-30T12:02:38;99857.02;;;24.01;63.38
39177;BME280;24904;52.208;21.192;2023-07-30T12:07:41;99859.80;;;24.06;62.84
39177;BME280;24904;52.208;21.192;2023-07-30T12:12:45;99860.86;;;24.07;63.95
39177;BME280;24904;52.208;21.192;2023-07-30T12:17:48;99859.69;;;24.09;64.04
39177;BME280;24904;52.208;21.192;2023-07-30T12:22:51;99856.13;;;24.10;64.08
39177;BME280;24904;52.208;21.192;2023-07-30T12:27:54;99852.08;;;24.18;62.53
39177;BME280;24904;52.208;21.192;2023-07-30T12:32:57;99854.05;;;24.20;61.71
39177;BME280;24904;52.208;21.192;2023-07-30T12:44:22;99854.02;;;24.01;62.45
39177;BME280;24904;52.208;21.192;2023-07-30T12:49:25;99849.79;;;23.85;63.17
39177;BME280;24904;52.208;21.192;2023-07-30T12:54:28;99846.48;;;23.76;62.90
39177;BME280;24904;52.208;21.192;2023-07-30T12:59:31;99848.23;;;23.71;63.79
39177;BME280;24904;52.208;21.192;2023-07-30T13:04:34;99840.14;;;23.72;62.33
39177;BME280;24904;52.208;21.192;2023-07-30T13:15:27;99839.23;;;23.85;62.20
39177;BME280;24904;52.208;21.192;2023-07-30T13:20:55;99843.96;;;23.88;62.85
39177;BME280;24904;52.208;21.192;2023-07-30T13:25:59;99842.15;;;23.89;63.78
39177;BME280;24904;52.208;21.192;2023-07-30T13:31:02;99843.15;;;23.88;62.66
39177;BME280;24904;52.208;21.192;2023-07-30T13:36:06;99839.63;;;23.93;61.48
39177;BME280;24904;52.208;21.192;2023-07-30T13:41:10;99846.17;;;23.99;61.38
39177;BME280;24904;52.208;21.192;2023-07-30T13:46:13;99844.88;;;24.06;61.70
39177;BME280;24904;52.208;21.192;2023-07-30T13:51:16;99838.71;;;24.12;61.62
39177;BME280;24904;52.208;21.192;2023-07-30T13:56:19;99838.02;;;24.16;60.64
39177;BME280;24904;52.208;21.192;2023-07-30T14:01:22;99835.44;;;24.17;60.69
39177;BME280;24904;52.208;21.192;2023-07-30T14:06:26;99828.38;;;24.24;60.72
39177;BME280;24904;52.208;21.192;2023-07-30T14:11:29;99826.29;;;24.24;60.53
39177;BME280;24904;52.208;21.192;2023-07-30T14:16:32;99827.23;;;24.23;60.71
39177;BME280;24904;52.208;21.192;2023-07-30T14:21:35;99827.24;;;24.23;60.48
39177;BME280;24904;52.208;21.192;2023-07-30T14:26:38;99826.00;;;24.20;60.53
39177;BME280;24904;52.208;21.192;2023-07-30T14:31:41;99823.45;;;24.17;60.86
39177;BME280;24904;52.208;21.192;2023-07-30T14:36:44;99826.21;;;24.12;61.05
39177;BME280;24904;52.208;21.192;2023-07-30T14:41:48;99831.92;;;24.07;60.60
39177;BME280;24904;52.208;21.192;2023-07-30T14:46:51;99833.70;;;24.11;60.46
39177;BME280;24904;52.208;21.192;2023-07-30T14:51:54;99831.34;;;24.19;60.62
39177;BME280;24904;52.208;21.192;2023-07-30T14:56:57;99838.23;;;24.16;61.29
39177;BME280;24904;52.208;21.192;2023-07-30T15:02:00;99829.63;;;24.00;60.09
39177;BME280;24904;52.208;21.192;2023-07-30T15:07:04;99819.23;;;23.82;59.15
39177;BME280;24904;52.208;21.192;2023-07-30T15:12:07;99813.03;;;23.73;59.46
39177;BME280;24904;52.208;21.192;2023-07-30T15:17:11;99816.02;;;23.63;59.43
39177;BME280;24904;52.208;21.192;2023-07-30T15:22:14;99808.85;;;23.58;59.64
39177;BME280;24904;52.208;21.192;2023-07-30T15:27:17;99804.55;;;23.52;60.77
39177;BME280;24904;52.208;21.192;2023-07-30T15:32:21;99803.52;;;23.39;61.91
39177;BME280;24904;52.208;21.192;2023-07-30T15:37:25;99798.76;;;23.26;62.54
39177;BME280;24904;52.208;21.192;2023-07-30T15:42:28;99794.59;;;23.18;62.87
39177;BME280;24904;52.208;21.192;2023-07-30T15:47:31;99787.46;;;23.05;62.41
39177;BME280;24904;52.208;21.192;2023-07-30T15:52:34;99788.14;;;22.95;63.11
39177;BME280;24904;52.208;21.192;2023-07-30T15:57:37;99794.16;;;22.89;63.86
39177;BME280;24904;52.208;21.192;2023-07-30T16:02:41;99786.60;;;22.82;64.30
39177;BME280;24904;52.208;21.192;2023-07-30T16:07:47;99788.67;;;22.75;64.65
39177;BME280;24904;52.208;21.192;2023-07-30T16:12:51;99786.63;;;22.69;64.28
39177;BME280;24904;52.208;21.192;2023-07-30T16:17:55;99788.42;;;22.72;64.29
39177;BME280;24904;52.208;21.192;2023-07-30T16:23:00;99788.34;;;22.76;64.81
39177;BME280;24904;52.208;21.192;2023-07-30T16:28:05;99782.44;;;22.76;65.25
39177;BME280;24904;52.208;21.192;2023-07-30T16:33:09;99791.52;;;22.72;65.43
39177;BME280;24904;52.208;21.192;2023-07-30T16:38:14;99790.68;;;22.65;65.28
39177;BME280;24904;52.208;21.192;2023-07-30T16:43:19;99788.21;;;22.58;65.42
39177;BME280;24904;52.208;21.192;2023-07-30T16:48:23;99791.31;;;22.53;65.84
39177;BME280;24904;52.208;21.192;2023-07-30T16:53:27;99804.93;;;22.49;65.74
39177;BME280;24904;52.208;21.192;2023-07-30T16:58:31;99810.23;;;22.49;65.79
39177;BME280;24904;52.208;21.192;2023-07-30T17:12:43;99822.58;;;22.46;66.39
39177;BME280;24904;52.208;21.192;2023-07-30T17:17:49;99831.25;;;22.45;66.43
39177;BME280;24904;52.208;21.192;2023-07-30T17:22:55;99826.91;;;22.44;66.60
39177;BME280;24904;52.208;21.192;2023-07-30T17:28:00;99829.59;;;22.43;66.05
39177;BME280;24904;52.208;21.192;2023-07-30T17:33:07;99835.18;;;22.42;67.15
39177;BME280;24904;52.208;21.192;2023-07-30T17:38:13;99837.40;;;22.39;66.90
39177;BME280;24904;52.208;21.192;2023-07-30T17:43:18;99833.48;;;22.35;66.66
39177;BME280;24904;52.208;21.192;2023-07-30T17:48:24;99834.86;;;22.31;66.08
39177;BME280;24904;52.208;21.192;2023-07-30T17:53:31;99835.77;;;22.27;65.79
39177;BME280;24904;52.208;21.192;2023-07-30T17:58:36;99840.49;;;22.21;65.99
39177;BME280;24904;52.208;21.192;2023-07-30T18:03:41;99844.80;;;22.16;66.05
39177;BME280;24904;52.208;21.192;2023-07-30T18:08:47;99847.98;;;22.11;66.03
39177;BME280;24904;52.208;21.192;2023-07-30T18:13:52;99844.54;;;22.09;65.88
39177;BME280;24904;52.208;21.192;2023-07-30T18:18:57;99836.78;;;22.08;66.24
39177;BME280;24904;52.208;21.192;2023-07-30T18:24:02;99833.08;;;22.01;66.33
39177;BME280;24904;52.208;21.192;2023-07-30T18:29:07;99832.64;;;21.92;67.11
39177;BME280;24904;52.208;21.192;2023-07-30T18:34:12;99845.23;;;21.84;67.51
39177;BME280;24904;52.208;21.192;2023-07-30T18:39:17;99844.07;;;21.78;67.96
39177;BME280;24904;52.208;21.192;2023-07-30T18:44:22;99846.86;;;21.69;68.53
39177;BME280;24904;52.208;21.192;2023-07-30T18:49:27;99847.20;;;21.59;69.15
39177;BME280;24904;52.208;21.192;2023-07-30T18:54:32;99856.25;;;21.51;69.75
39177;BME280;24904;52.208;21.192;2023-07-30T18:59:37;99866.05;;;21.42;70.00
39177;BME280;24904;52.208;21.192;2023-07-30T19:04:43;99866.56;;;21.29;69.84
39177;BME280;24904;52.208;21.192;2023-07-30T19:09:48;99869.18;;;21.19;69.83
39177;BME280;24904;52.208;21.192;2023-07-30T19:14:53;99871.19;;;21.10;69.77
39177;BME280;24904;52.208;21.192;2023-07-30T19:19:58;99870.48;;;21.00;70.49
39177;BME280;24904;52.208;21.192;2023-07-30T19:25:03;99867.17;;;20.87;70.56
39177;BME280;24904;52.208;21.192;2023-07-30T19:30:10;99869.66;;;20.78;70.70
39177;BME280;24904;52.208;21.192;2023-07-30T19:35:15;99872.80;;;20.67;70.95
39177;BME280;24904;52.208;21.192;2023-07-30T19:40:20;99873.35;;;20.55;71.70
39177;BME280;24904;52.208;21.192;2023-07-30T19:45:25;99877.02;;;20.42;71.83
39177;BME280;24904;52.208;21.192;2023-07-30T19:50:31;99877.88;;;20.31;72.24
39177;BME280;24904;52.208;21.192;2023-07-30T19:55:37;99877.27;;;20.22;72.65
39177;BME280;24904;52.208;21.192;2023-07-30T20:00:43;99875.58;;;20.11;73.27
39177;BME280;24904;52.208;21.192;2023-07-30T20:05:48;99880.63;;;20.03;73.54
39177;BME280;24904;52.208;21.192;2023-07-30T20:10:55;99878.07;;;19.90;73.99
39177;BME280;24904;52.208;21.192;2023-07-30T20:16:01;99883.80;;;19.80;74.50
39177;BME280;24904;52.208;21.192;2023-07-30T20:21:08;99888.73;;;19.77;74.87
39177;BME280;24904;52.208;21.192;2023-07-30T20:26:15;99891.85;;;19.64;75.02
39177;BME280;24904;52.208;21.192;2023-07-30T20:31:21;99899.09;;;19.60;75.43
39177;BME280;24904;52.208;21.192;2023-07-30T20:36:26;99893.77;;;19.49;75.72
39177;BME280;24904;52.208;21.192;2023-07-30T20:41:31;99889.17;;;19.36;76.24
39177;BME280;24904;52.208;21.192;2023-07-30T20:46:36;99888.29;;;19.32;76.96
39177;BME280;24904;52.208;21.192;2023-07-30T20:51:41;99883.62;;;19.28;77.31
39177;BME280;24904;52.208;21.192;2023-07-30T20:56:46;99887.00;;;19.17;77.59
39177;BME280;24904;52.208;21.192;2023-07-30T21:01:51;99886.88;;;19.08;77.71
39177;BME280;24904;52.208;21.192;2023-07-30T21:06:56;99888.33;;;19.00;78.01
39177;BME280;24904;52.208;21.192;2023-07-30T21:12:01;99889.86;;;18.94;78.37
39177;BME280;24904;52.208;21.192;2023-07-30T21:17:07;99888.13;;;18.91;78.73
39177;BME280;24904;52.208;21.192;2023-07-30T21:22:12;99896.03;;;18.93;79.10
39177;BME280;24904;52.208;21.192;2023-07-30T21:27:18;99892.02;;;18.99;79.32
39177;BME280;24904;52.208;21.192;2023-07-30T21:32:23;99892.09;;;19.07;79.61
39177;BME280;24904;52.208;21.192;2023-07-30T21:37:28;99897.09;;;19.09;80.08
39177;BME280;24904;52.208;21.192;2023-07-30T21:42:33;99892.46;;;19.10;80.18
39177;BME280;24904;52.208;21.192;2023-07-30T21:47:38;99891.70;;;19.11;79.80
39177;BME280;24904;52.208;21.192;2023-07-30T21:52:43;99889.38;;;19.15;79.57
39177;BME280;24904;52.208;21.192;2023-07-30T21:57:48;99889.42;;;19.16;79.43
39177;BME280;24904;52.208;21.192;2023-07-30T22:02:51;99884.09;;;19.16;79.34
39177;BME280;24904;52.208;21.192;2023-07-30T22:07:54;99881.41;;;19.13;79.45
39177;BME280;24904;52.208;21.192;2023-07-30T22:12:58;99870.88;;;19.07;79.74
39177;BME280;24904;52.208;21.192;2023-07-30T22:18:01;99868.00;;;18.94;79.68
39177;BME280;24904;52.208;21.192;2023-07-30T22:23:04;99868.27;;;18.80;79.59
39177;BME280;24904;52.208;21.192;2023-07-30T22:28:08;99865.91;;;18.72;79.91
39177;BME280;24904;52.208;21.192;2023-07-30T22:33:11;99864.65;;;18.66;80.04
39177;BME280;24904;52.208;21.192;2023-07-30T22:38:14;99863.50;;;18.58;80.19
39177;BME280;24904;52.208;21.192;2023-07-30T22:43:18;99865.11;;;18.50;80.32
39177;BME280;24904;52.208;21.192;2023-07-30T22:48:21;99869.16;;;18.44;80.77
39177;BME280;24904;52.208;21.192;2023-07-30T22:53:24;99869.16;;;18.41;81.01
39177;BME280;24904;52.208;21.192;2023-07-30T22:58:27;99861.55;;;18.35;81.05
39177;BME280;24904;52.208;21.192;2023-07-30T23:03:31;99872.08;;;18.31;81.36
39177;BME280;24904;52.208;21.192;2023-07-30T23:08:34;99874.71;;;18.36;81.92
39177;BME280;24904;52.208;21.192;2023-07-30T23:13:37;99879.00;;;18.42;81.87
39177;BME280;24904;52.208;21.192;2023-07-30T23:18:41;99875.11;;;18.41;81.93
39177;BME280;24904;52.208;21.192;2023-07-30T23:23:44;99870.70;;;18.40;81.83
39177;BME280;24904;52.208;21.192;2023-07-30T23:28:48;99873.17;;;18.39;81.70
39177;BME280;24904;52.208;21.192;2023-07-30T23:33:51;99875.69;;;18.44;81.64
39177;BME280;24904;52.208;21.192;2023-07-30T23:38:54;99874.47;;;18.45;81.47
39177;BME280;24904;52.208;21.192;2023-07-30T23:43:58;99867.64;;;18.42;81.32
39177;BME280;24904;52.208;21.192;2023-07-30T23:49:01;99870.44;;;18.41;81.16
39177;BME280;24904;52.208;21.192;2023-07-30T23:54:04;99872.48;;;18.45;81.11
39177;BME280;24904;52.208;21.192;2023-07-30T23:59:07;99877.39;;;18.46;80.65
